createdAt,value
2018-03-23T04:25:01.092Z,0.1
2018-03-23T04:27:01.126Z,0.2
2018-03-23T04:28:01.096Z,0.3
2018-03-23T04:30:01.312Z,0.4
2018-03-23T04:31:01.147Z,0.5
2018-03-23T04:33:01.128Z,0.7
2018-03-23T04:34:01.096Z,0.8
2018-03-23T04:35:01.306Z,0.9
2018-03-23T04:36:01.097Z,1.1
2018-03-23T04:37:01.132Z,1.3
2018-03-23T04:38:01.121Z,1.6
2018-03-23T04:39:01.101Z,1.9
2018-03-23T04:40:01.244Z,2.1
2018-03-23T04:41:01.099Z,2.5
2018-03-23T04:42:01.110Z,2.9
2018-03-23T04:43:01.132Z,3.4
2018-03-23T04:44:01.096Z,4.1
2018-03-23T04:45:01.252Z,4.9
2018-03-23T04:46:01.101Z,5.8
2018-03-23T04:47:01.101Z,6.9
2018-03-23T04:48:01.118Z,8.2
2018-03-23T04:49:01.098Z,9.7
2018-03-23T04:50:01.242Z,11.4
2018-03-23T04:51:01.104Z,13.3
2018-03-23T04:52:01.120Z,15.7
2018-03-23T04:53:01.100Z,18.5
2018-03-23T04:54:01.096Z,21.9
2018-03-23T04:55:01.241Z,25.8
2018-03-23T04:56:01.132Z,30.3
2018-03-23T04:57:01.100Z,35.5
2018-03-23T04:58:01.103Z,41.6
2018-03-23T04:59:01.100Z,48.9
2018-03-23T05:00:01.242Z,57.5
2018-03-23T05:01:01.123Z,67.5
2018-03-23T05:02:01.138Z,78.8
2018-03-23T05:03:01.102Z,91.5
2018-03-23T05:04:01.097Z,105.9
2018-03-23T05:05:01.243Z,122.5
2018-03-23T05:06:01.103Z,141.2
2018-03-23T05:07:01.135Z,162.3
2018-03-23T05:08:01.161Z,186.0
2018-03-23T05:09:01.104Z,213.1
2018-03-23T05:10:01.245Z,244.4
2018-03-23T05:11:01.100Z,279.8
2018-03-23T05:12:01.138Z,319.3
2018-03-23T05:13:01.111Z,362.5
2018-03-23T05:14:01.102Z,407.7
2018-03-23T05:15:01.241Z,455.1
2018-03-23T05:16:01.105Z,506.6
2018-03-23T05:17:01.139Z,564.9
2018-03-23T05:18:01.101Z,631.1
2018-03-23T05:19:01.103Z,701.9
2018-03-23T05:20:01.264Z,773.5
2018-03-23T05:21:01.097Z,845.7
2018-03-23T05:22:01.133Z,920.1
2018-03-23T05:23:01.104Z,998.3
2018-03-23T05:24:01.102Z,1078.5
2018-03-23T05:25:01.265Z,1161.7
2018-03-23T05:26:01.104Z,1245.5
2018-03-23T05:27:01.216Z,1330.2
2018-03-23T05:28:01.104Z,1418.9
2018-03-23T05:29:01.102Z,1509.3
2018-03-23T05:30:01.249Z,1601.6
2018-03-23T05:31:01.104Z,1696.1
2018-03-23T05:32:01.141Z,1793.3
2018-03-23T05:33:01.104Z,1893.7
2018-03-23T05:34:01.102Z,2000.7
2018-03-23T05:35:01.243Z,2120.5
2018-03-23T05:36:01.108Z,2248.6
2018-03-23T05:37:01.143Z,2381.1
2018-03-23T05:38:01.105Z,2521.7
2018-03-23T05:40:07.259Z,2685.7
2018-03-23T05:41:01.092Z,2859.3
2018-03-23T05:42:01.087Z,3043.9
2018-03-23T05:43:01.119Z,3239.0
2018-03-23T05:44:01.088Z,3438.9
2018-03-23T05:45:01.234Z,3644.4
2018-03-23T05:46:01.121Z,3858.6
2018-03-23T05:47:01.090Z,4084.9
2018-03-23T05:48:01.088Z,4324.5
2018-03-23T05:49:01.139Z,4581.8
2018-03-23T05:50:01.236Z,4863.0
2018-03-23T05:51:01.103Z,5162.8
2018-03-23T05:52:01.096Z,5481.7
2018-03-23T05:53:01.095Z,5815.5
2018-03-23T05:54:01.089Z,6142.5
2018-03-23T05:55:01.257Z,6418.3
2018-03-23T05:56:01.094Z,6634.7
2018-03-23T05:57:01.099Z,6794.0
2018-03-23T05:58:01.090Z,6913.3
2018-03-23T05:59:01.095Z,7005.3
2018-03-23T06:00:01.269Z,7074.1
2018-03-23T06:01:01.094Z,7119.1
2018-03-23T06:02:01.126Z,7153.9
2018-03-23T06:03:01.098Z,7191.1
2018-03-23T06:04:01.100Z,7213.9
2018-03-23T06:05:01.237Z,7193.1
2018-03-23T06:06:01.101Z,7104.8
2018-03-23T06:07:01.162Z,6943.8
2018-03-23T06:08:01.100Z,6725.2
2018-03-23T06:09:01.096Z,6493.8
2018-03-23T06:10:01.241Z,6315.7
2018-03-23T06:11:01.094Z,6183.9
2018-03-23T06:12:01.128Z,6124.9
2018-03-23T06:13:01.120Z,6143.1
2018-03-23T06:14:01.095Z,6204.9
2018-03-23T06:15:01.237Z,6291.5
2018-03-23T06:16:01.095Z,6391.5
2018-03-23T06:17:01.138Z,6508.4
2018-03-23T06:18:01.098Z,6627.7
2018-03-23T06:19:01.094Z,6748.3
2018-03-23T06:20:02.333Z,6885.6
2018-03-23T06:21:01.097Z,7099.3
2018-03-23T06:22:01.130Z,7398.0
2018-03-23T06:23:01.102Z,7770.7
2018-03-23T06:24:01.103Z,8215.9
2018-03-23T06:25:01.239Z,8668.3
2018-03-23T06:26:01.094Z,9112.8
2018-03-23T06:27:01.120Z,9593.5
2018-03-23T06:28:01.135Z,10119.1
2018-03-23T06:29:01.101Z,10663.3
2018-03-23T06:30:01.241Z,11266.2
2018-03-23T06:31:01.097Z,11931.5
2018-03-23T06:32:01.115Z,12664.9
2018-03-23T06:33:01.096Z,13426.9
2018-03-23T06:34:01.118Z,14190.9
2018-03-23T06:35:01.241Z,14960.9
2018-03-23T06:36:01.097Z,15750.3
2018-03-23T06:37:01.125Z,16576.9
2018-03-23T06:38:01.093Z,17397.9
2018-03-23T06:39:01.097Z,18270.0
2018-03-23T06:40:01.244Z,19170.3
2018-03-23T06:41:01.101Z,20273.5
2018-03-23T06:42:01.116Z,21523.8
2018-03-23T06:43:01.097Z,22861.1
2018-03-23T06:44:01.098Z,24231.3
2018-03-23T06:45:01.236Z,25539.7
2018-03-23T06:46:01.096Z,26788.6
2018-03-23T06:47:01.119Z,27974.0
2018-03-23T06:48:01.096Z,29162.2
2018-03-23T06:49:01.097Z,30401.7
2018-03-23T06:50:01.242Z,31614.3
2018-03-23T06:51:01.101Z,32680.7
2018-03-23T06:52:01.122Z,33481.2
2018-03-23T06:53:01.106Z,33979.8
2018-03-23T06:54:01.100Z,34366.2
2018-03-23T06:55:01.242Z,34882.8
2018-03-23T06:56:01.097Z,35236.2
2018-03-23T06:57:01.127Z,35505.5
2018-03-23T06:58:01.098Z,35575.3
2018-03-23T06:59:01.098Z,35640.7
2018-03-23T07:00:01.304Z,35964.5
2018-03-23T07:01:01.102Z,36633.4
2018-03-23T07:02:01.132Z,37588.5
2018-03-23T07:03:01.114Z,38626.5
2018-03-23T07:04:01.100Z,39698.4
2018-03-23T07:05:01.237Z,40859.7
2018-03-23T07:06:01.097Z,42135.6
2018-03-23T07:07:01.126Z,43538.5
2018-03-23T07:08:01.099Z,45123.7
2018-03-23T07:09:01.097Z,46656.2
2018-03-23T07:10:01.242Z,47827.7
2018-03-23T07:11:01.144Z,48820.6
2018-03-23T07:12:01.137Z,49574.1
2018-03-23T07:13:01.101Z,50330.0
2018-03-23T07:14:01.103Z,51242.3
2018-03-23T07:15:01.249Z,52750.7
2018-03-23T07:16:01.097Z,54028.5
2018-03-23T07:17:01.136Z,54988.5
2018-03-23T07:18:01.104Z,55805.2
2018-03-23T07:19:01.104Z,56512.3
2018-03-23T07:20:01.293Z,57034.2
2018-03-23T07:21:01.107Z,57630.9
2018-03-23T07:22:01.198Z,58292.1
2018-03-23T07:23:01.102Z,58912.1
2018-03-23T07:24:01.104Z,59370.1
2018-03-23T07:25:01.254Z,59872.3
2018-03-23T07:26:01.103Z,60436.5
2018-03-23T07:27:01.187Z,61103.1
2018-03-23T07:28:01.104Z,61912.8
2018-03-23T07:29:01.104Z,62650.5
2018-03-23T07:30:01.246Z,62771.4
2018-03-23T07:34:01.134Z,62776.5
2018-03-23T07:35:01.253Z,62888.2
2018-03-23T07:36:01.100Z,62893.7
2018-03-23T07:38:01.103Z,63019.6
2018-03-23T07:39:01.139Z,63353.3
2018-03-23T07:40:01.309Z,63806.4
2018-03-23T07:41:01.103Z,64340.5
2018-03-23T07:42:01.100Z,64879.9
2018-03-23T07:43:01.105Z,65288.1
2018-03-23T07:44:01.138Z,65535.0
2018-03-23T07:45:01.251Z,65535.0
2018-03-23T08:00:06.410Z,65535.0
2018-03-23T08:15:01.338Z,65535.0
2018-03-23T08:30:02.303Z,65535.0
2018-03-23T08:45:01.361Z,65535.0
2018-03-23T09:00:06.269Z,65535.0
2018-03-23T09:15:01.332Z,65535.0
2018-03-23T09:30:03.376Z,65535.0
2018-03-23T09:45:02.288Z,65535.0
2018-03-23T10:00:01.486Z,65535.0
2018-03-23T10:15:02.297Z,65535.0
2018-03-23T10:30:01.348Z,65535.0
2018-03-23T10:45:01.494Z,65535.0
2018-03-23T11:00:01.339Z,65535.0
2018-03-23T11:15:05.380Z,65535.0
2018-03-23T11:30:02.334Z,65535.0
2018-03-23T11:45:02.312Z,65535.0
2018-03-23T12:00:02.367Z,65535.0
2018-03-23T12:15:01.342Z,65535.0
2018-03-23T12:30:01.315Z,65535.0
2018-03-23T12:45:01.332Z,65535.0
2018-03-23T13:00:04.488Z,65535.0
2018-03-23T13:15:03.334Z,65535.0
2018-03-23T13:30:05.358Z,65535.0
2018-03-23T13:45:04.430Z,65535.0
2018-03-23T14:00:01.330Z,65535.0
2018-03-23T14:08:01.399Z,65385.3
2018-03-23T14:09:01.106Z,65357.7
2018-03-23T14:13:01.269Z,65178.7
2018-03-23T14:14:01.100Z,64791.4
2018-03-23T14:15:01.099Z,64284.9
2018-03-23T14:16:01.098Z,63898.8
2018-03-23T14:17:01.131Z,63720.3
2018-03-23T14:21:02.256Z,63710.3
2018-03-23T14:22:01.117Z,63564.7
2018-03-23T14:23:01.104Z,63182.7
2018-03-23T14:24:01.083Z,62932.1
2018-03-23T14:25:01.088Z,62698.1
2018-03-23T14:26:01.233Z,62530.7
2018-03-23T14:27:01.089Z,62307.5
2018-03-23T14:28:01.118Z,61814.3
2018-03-23T14:29:01.096Z,61291.2
2018-03-23T14:30:01.135Z,61018.3
2018-03-23T14:31:01.258Z,60976.1
2018-03-23T14:32:01.092Z,60783.5
2018-03-23T14:33:01.126Z,60422.2
2018-03-23T14:34:01.088Z,59862.3
2018-03-23T14:35:01.092Z,59318.6
2018-03-23T14:36:01.236Z,58800.9
2018-03-23T14:37:01.089Z,58446.9
2018-03-23T14:38:01.127Z,58439.3
2018-03-23T14:39:01.092Z,58616.5
2018-03-23T14:40:01.087Z,58787.6
2018-03-23T14:41:01.232Z,58904.3
2018-03-23T14:42:01.093Z,59122.9
2018-03-23T14:43:01.123Z,59616.2
2018-03-23T14:44:01.093Z,60318.3
2018-03-23T14:45:01.102Z,60978.5
2018-03-23T14:46:01.235Z,61527.1
2018-03-23T14:47:01.089Z,62105.9
2018-03-23T14:48:01.173Z,62591.3
2018-03-23T14:49:01.096Z,63062.9
2018-03-23T14:50:01.089Z,63445.8
2018-03-23T14:51:01.238Z,63805.9
2018-03-23T14:52:01.158Z,64227.4
2018-03-23T14:53:01.090Z,64617.0
2018-03-23T14:54:01.123Z,64840.1
2018-03-23T14:55:01.092Z,64930.5
2018-03-23T14:56:01.239Z,64981.2
2018-03-23T14:57:01.092Z,64985.7
2018-03-23T15:00:02.141Z,64985.7
2018-03-23T15:01:01.233Z,64783.5
2018-03-23T15:02:01.096Z,64377.8
2018-03-23T15:03:01.094Z,63827.7
2018-03-23T15:04:01.117Z,63148.7
2018-03-23T15:05:01.096Z,62623.5
2018-03-23T15:06:01.242Z,62156.5
2018-03-23T15:07:01.092Z,61578.1
2018-03-23T15:08:01.113Z,60975.5
2018-03-23T15:09:01.096Z,60323.1
2018-03-23T15:10:01.094Z,59405.7
2018-03-23T15:11:01.235Z,58284.9
2018-03-23T15:12:01.096Z,57094.4
2018-03-23T15:13:01.126Z,55992.9
2018-03-23T15:14:01.098Z,54860.0
2018-03-23T15:15:01.096Z,53552.9
2018-03-23T15:16:01.238Z,52302.0
2018-03-23T15:17:01.117Z,51066.7
2018-03-23T15:18:01.093Z,50018.3
2018-03-23T15:19:01.121Z,49221.3
2018-03-23T15:20:01.095Z,48458.6
2018-03-23T15:21:01.382Z,47599.5
2018-03-23T15:22:01.095Z,46497.2
2018-03-23T15:23:01.096Z,45044.9
2018-03-23T15:24:01.122Z,43453.9
2018-03-23T15:25:01.098Z,42035.0
2018-03-23T15:26:01.242Z,40766.7
2018-03-23T15:27:01.095Z,39589.3
2018-03-23T15:28:01.097Z,38433.9
2018-03-23T15:29:01.118Z,37473.9
2018-03-23T15:30:01.099Z,36751.5
2018-03-23T15:31:01.238Z,36152.1
2018-03-23T15:32:01.100Z,35823.1
2018-03-23T15:33:01.133Z,35533.4
2018-03-23T15:34:01.099Z,35122.1
2018-03-23T15:35:01.124Z,34630.9
2018-03-23T15:36:01.248Z,34128.4
2018-03-23T15:37:01.102Z,33843.9
2018-03-23T15:38:01.129Z,33827.3
2018-03-23T15:39:01.103Z,33927.0
2018-03-23T15:40:01.104Z,33955.6
2018-03-23T15:41:01.316Z,33845.1
2018-03-23T15:42:01.102Z,33704.3
2018-03-23T15:43:01.141Z,33510.8
2018-03-23T15:44:01.110Z,33116.2
2018-03-23T15:45:01.100Z,32582.5
2018-03-23T15:46:01.256Z,32015.6
2018-03-23T15:47:01.101Z,31385.7
2018-03-23T15:48:01.125Z,30762.9
2018-03-23T15:49:01.130Z,30171.9
2018-03-23T15:51:01.260Z,29571.9
2018-03-23T15:52:01.090Z,29004.5
2018-03-23T15:53:01.119Z,28487.0
2018-03-23T15:54:01.098Z,27970.1
2018-03-23T15:55:01.085Z,27521.5
2018-03-23T15:56:01.236Z,27175.3
2018-03-23T15:57:01.083Z,26987.9
2018-03-23T15:58:01.113Z,26800.3
2018-03-23T15:59:01.091Z,26459.3
2018-03-23T16:00:01.091Z,26110.8
2018-03-23T16:01:01.241Z,25816.4
2018-03-23T16:02:01.135Z,25539.1
2018-03-23T16:03:01.114Z,25257.0
2018-03-23T16:04:01.088Z,24901.7
2018-03-23T16:05:01.090Z,24466.1
2018-03-23T16:06:01.235Z,23968.5
2018-03-23T16:07:01.095Z,23529.1
2018-03-23T16:08:01.119Z,23145.8
2018-03-23T16:09:01.093Z,22782.3
2018-03-23T16:10:01.100Z,22351.5
2018-03-23T16:11:01.240Z,21890.2
2018-03-23T16:12:01.099Z,21349.6
2018-03-23T16:13:01.117Z,20742.6
2018-03-23T16:14:01.096Z,20228.3
2018-03-23T16:15:01.094Z,19788.9
2018-03-23T16:16:01.243Z,19397.5
2018-03-23T16:17:01.098Z,19033.9
2018-03-23T16:18:01.118Z,18645.5
2018-03-23T16:19:01.101Z,18290.7
2018-03-23T16:20:01.098Z,17985.7
2018-03-23T16:21:01.301Z,17672.7
2018-03-23T16:22:01.116Z,17278.5
2018-03-23T16:23:01.101Z,16796.3
2018-03-23T16:24:01.165Z,16307.5
2018-03-23T16:25:01.098Z,15888.7
2018-03-23T16:26:01.272Z,15572.4
2018-03-23T16:27:01.101Z,15366.5
2018-03-23T16:28:01.099Z,15212.8
2018-03-23T16:29:01.105Z,15046.5
2018-03-23T16:30:01.107Z,14830.7
2018-03-23T16:31:01.271Z,14558.4
2018-03-23T16:32:01.183Z,14278.7
2018-03-23T16:33:01.106Z,14001.8
2018-03-23T16:34:01.099Z,13708.3
2018-03-23T16:35:01.103Z,13403.7
2018-03-23T16:36:01.266Z,13131.7
2018-03-23T16:37:01.136Z,12938.7
2018-03-23T16:38:01.102Z,12817.5
2018-03-23T16:39:01.106Z,12721.1
2018-03-23T16:40:01.108Z,12618.3
2018-03-23T16:41:01.244Z,12497.5
2018-03-23T16:42:01.125Z,12369.2
2018-03-23T16:43:01.159Z,12264.3
2018-03-23T16:45:01.086Z,12103.2
2018-03-23T16:46:01.230Z,11851.2
2018-03-23T16:47:01.087Z,11520.5
2018-03-23T16:48:01.089Z,11167.9
2018-03-23T16:49:01.132Z,10816.2
2018-03-23T16:50:01.088Z,10481.3
2018-03-23T16:51:01.226Z,10173.9
2018-03-23T16:52:01.087Z,9859.0
2018-03-23T16:53:01.087Z,9486.9
2018-03-23T16:54:01.090Z,9036.6
2018-03-23T16:55:01.107Z,8545.4
2018-03-23T16:56:01.489Z,8042.9
2018-03-23T16:57:01.090Z,7532.7
2018-03-23T16:58:01.117Z,7023.4
2018-03-23T16:59:01.088Z,6513.9
2018-03-23T17:00:01.096Z,6076.4
2018-03-23T17:01:01.248Z,5756.1
2018-03-23T17:02:01.092Z,5548.3
2018-03-23T17:03:01.118Z,5369.2
2018-03-23T17:04:01.096Z,5174.7
2018-03-23T17:05:01.091Z,4966.0
2018-03-23T17:06:01.246Z,4761.6
2018-03-23T17:07:01.095Z,4574.1
2018-03-23T17:08:01.123Z,4413.7
2018-03-23T17:09:01.096Z,4275.2
2018-03-23T17:10:01.095Z,4145.9
2018-03-23T17:11:01.233Z,4014.0
2018-03-23T17:12:01.098Z,3884.1
2018-03-23T17:13:01.124Z,3760.7
2018-03-23T17:14:01.104Z,3642.9
2018-03-23T17:15:01.107Z,3524.6
2018-03-23T17:16:01.251Z,3393.9
2018-03-23T17:17:01.130Z,3255.0
2018-03-23T17:18:01.104Z,3122.8
2018-03-23T17:19:01.105Z,3004.7
2018-03-23T17:20:01.126Z,2894.2
2018-03-23T17:21:01.289Z,2779.7
2018-03-23T17:22:01.125Z,2657.5
2018-03-23T17:23:01.103Z,2529.9
2018-03-23T17:24:01.109Z,2411.5
2018-03-23T17:26:01.232Z,2303.9
2018-03-23T17:27:01.122Z,2214.3
2018-03-23T17:28:01.087Z,2131.7
2018-03-23T17:29:01.086Z,2043.9
2018-03-23T17:30:01.093Z,1943.2
2018-03-23T17:31:01.240Z,1834.9
2018-03-23T17:32:01.194Z,1725.9
2018-03-23T17:33:01.096Z,1616.8
2018-03-23T17:34:01.097Z,1509.7
2018-03-23T17:35:01.092Z,1407.6
2018-03-23T17:36:01.232Z,1315.3
2018-03-23T17:37:01.118Z,1236.2
2018-03-23T17:38:01.091Z,1162.9
2018-03-23T17:39:01.092Z,1087.7
2018-03-23T17:40:01.101Z,1011.7
2018-03-23T17:41:01.244Z,943.3
2018-03-23T17:42:01.120Z,876.3
2018-03-23T17:43:01.096Z,812.9
2018-03-23T17:44:01.095Z,753.3
2018-03-23T17:45:01.115Z,698.7
2018-03-23T17:46:01.236Z,648.8
2018-03-23T17:47:01.097Z,603.0
2018-03-23T17:48:01.101Z,559.9
2018-03-23T17:49:01.098Z,518.7
2018-03-23T17:50:01.139Z,478.3
2018-03-23T17:51:01.242Z,437.8
2018-03-23T17:52:01.100Z,396.9
2018-03-23T17:53:01.094Z,357.2
2018-03-23T17:54:01.096Z,321.3
2018-03-23T17:55:01.132Z,289.9
2018-03-23T17:56:01.242Z,260.4
2018-03-23T17:57:01.097Z,232.1
2018-03-23T17:58:01.096Z,206.1
2018-03-23T17:59:01.097Z,182.5
2018-03-23T18:00:01.123Z,161.3
2018-03-23T18:01:01.273Z,141.9
2018-03-23T18:02:01.103Z,124.1
2018-03-23T18:03:01.099Z,108.1
2018-03-23T18:04:01.099Z,93.3
2018-03-23T18:05:01.100Z,79.7
2018-03-23T18:06:01.278Z,67.9
2018-03-23T18:07:01.106Z,57.7
2018-03-23T18:08:01.105Z,49.6
2018-03-23T18:09:01.102Z,42.9
2018-03-23T18:10:01.103Z,36.8
2018-03-23T18:11:01.274Z,31.3
2018-03-23T18:12:01.107Z,26.5
2018-03-23T18:13:01.104Z,22.5
2018-03-23T18:15:01.108Z,19.1
2018-03-23T18:16:01.232Z,16.3
2018-03-23T18:17:01.137Z,13.8
2018-03-23T18:18:01.092Z,11.7
2018-03-23T18:19:01.089Z,9.7
2018-03-23T18:20:01.114Z,8.1
2018-03-23T18:21:01.537Z,6.9
2018-03-23T18:22:01.127Z,5.8
2018-03-23T18:23:01.090Z,4.9
2018-03-23T18:24:01.094Z,4.1
2018-03-23T18:25:01.098Z,3.5
2018-03-23T18:26:01.244Z,2.9
2018-03-23T18:27:01.124Z,2.5
2018-03-23T18:28:01.092Z,2.1
2018-03-23T18:29:01.092Z,1.8
2018-03-23T18:30:01.093Z,1.6
2018-03-23T18:31:01.234Z,1.4
2018-03-23T18:32:01.154Z,1.2
2018-03-23T18:33:01.092Z,1.0
2018-03-23T18:34:01.120Z,0.9
2018-03-23T18:35:01.093Z,0.7
2018-03-23T18:36:01.233Z,0.6
2018-03-23T18:37:01.096Z,0.5
2018-03-23T18:39:01.179Z,0.4
2018-03-23T18:40:01.091Z,0.3
2018-03-23T18:42:01.240Z,0.2
2018-03-23T18:43:01.092Z,0.1
